sensor_id;sensor_type;location;lat;lon;timestamp;temperature;humidity
67555;HTU21D;54385;53.516;49.456;2023-07-28T00:00:38;26.19;51.90
67555;HTU21D;54385;53.516;49.456;2023-07-28T00:03:04;26.15;51.98
67555;HTU21D;54385;53.516;49.456;2023-07-28T00:05:31;26.12;52.03
67555;HTU21D;54385;53.516;49.456;2023-07-28T00:07:57;26.07;52.20
67555;HTU21D;54385;53.516;49.456;2023-07-28T00:10:23;26.07;52.12
67555;HTU21D;54385;53.516;49.456;2023-07-28T00:12:50;26.11;52.14
67555;HTU21D;54385;53.516;49.456;2023-07-28T00:15:16;26.10;52.14
67555;HTU21D;54385;53.516;49.456;2023-07-28T00:17:42;26.12;52.19
67555;HTU21D;54385;53.516;49.456;2023-07-28T00:20:11;26.16;52.24
67555;HTU21D;54385;53.516;49.456;2023-07-28T00:22:37;26.12;52.33
67555;HTU21D;54385;53.516;49.456;2023-07-28T00:25:04;26.15;52.29
67555;HTU21D;54385;53.516;49.456;2023-07-28T00:27:31;26.12;52.34
67555;HTU21D;54385;53.516;49.456;2023-07-28T00:29:57;26.13;52.37
67555;HTU21D;54385;53.516;49.456;2023-07-28T00:32:24;26.11;52.44
67555;HTU21D;54385;53.516;49.456;2023-07-28T00:34:50;26.11;52.56
67555;HTU21D;54385;53.516;49.456;2023-07-28T00:37:16;26.06;52.78
67555;HTU21D;54385;53.516;49.456;2023-07-28T00:39:43;26.03;52.89
67555;HTU21D;54385;53.516;49.456;2023-07-28T00:42:09;26.01;52.95
67555;HTU21D;54385;53.516;49.456;2023-07-28T00:44:36;25.99;53.01
67555;HTU21D;54385;53.516;49.456;2023-07-28T00:47:02;25.99;53.06
67555;HTU21D;54385;53.516;49.456;2023-07-28T00:49:29;25.99;53.05
67555;HTU21D;54385;53.516;49.456;2023-07-28T00:51:56;25.98;53.18
67555;HTU21D;54385;53.516;49.456;2023-07-28T00:54:23;25.95;53.29
67555;HTU21D;54385;53.516;49.456;2023-07-28T00:56:51;25.93;53.33
67555;HTU21D;54385;53.516;49.456;2023-07-28T00:59:18;25.92;53.31
67555;HTU21D;54385;53.516;49.456;2023-07-28T01:01:44;25.92;53.27
67555;HTU21D;54385;53.516;49.456;2023-07-28T01:04:11;25.91;53.27
67555;HTU21D;54385;53.516;49.456;2023-07-28T01:06:53;25.93;53.26
67555;HTU21D;54385;53.516;49.456;2023-07-28T01:09:28;25.95;53.22
67555;HTU21D;54385;53.516;49.456;2023-07-28T01:11:56;25.97;53.02
67555;HTU21D;54385;53.516;49.456;2023-07-28T01:14:24;26.02;52.69
67555;HTU21D;54385;53.516;49.456;2023-07-28T01:16:51;26.06;52.56
67555;HTU21D;54385;53.516;49.456;2023-07-28T01:19:19;26.09;52.49
67555;HTU21D;54385;53.516;49.456;2023-07-28T01:21:53;26.11;52.43
67555;HTU21D;54385;53.516;49.456;2023-07-28T01:26:50;26.17;52.31
67555;HTU21D;54385;53.516;49.456;2023-07-28T01:29:18;26.12;52.42
67555;HTU21D;54385;53.516;49.456;2023-07-28T01:31:48;26.12;52.46
67555;HTU21D;54385;53.516;49.456;2023-07-28T01:34:14;26.08;52.53
67555;HTU21D;54385;53.516;49.456;2023-07-28T01:36:41;26.10;52.46
67555;HTU21D;54385;53.516;49.456;2023-07-28T01:39:07;26.13;52.36
67555;HTU21D;54385;53.516;49.456;2023-07-28T01:41:33;26.18;52.29
67555;HTU21D;54385;53.516;49.456;2023-07-28T01:44:00;26.20;52.27
67555;HTU21D;54385;53.516;49.456;2023-07-28T01:46:26;26.22;52.13
67555;HTU21D;54385;53.516;49.456;2023-07-28T01:48:53;26.26;52.04
67555;HTU21D;54385;53.516;49.456;2023-07-28T01:51:19;26.27;52.03
67555;HTU21D;54385;53.516;49.456;2023-07-28T01:53:45;26.31;51.96
67555;HTU21D;54385;53.516;49.456;2023-07-28T01:56:12;26.30;51.97
67555;HTU21D;54385;53.516;49.456;2023-07-28T01:58:38;26.34;51.87
67555;HTU21D;54385;53.516;49.456;2023-07-28T02:01:05;26.37;51.79
67555;HTU21D;54385;53.516;49.456;2023-07-28T02:03:31;26.39;51.70
67555;HTU21D;54385;53.516;49.456;2023-07-28T02:05:57;26.42;51.71
67555;HTU21D;54385;53.516;49.456;2023-07-28T02:08:24;26.45;51.69
67555;HTU21D;54385;53.516;49.456;2023-07-28T02:10:50;26.47;51.59
67555;HTU21D;54385;53.516;49.456;2023-07-28T02:13:19;26.52;51.46
67555;HTU21D;54385;53.516;49.456;2023-07-28T02:15:45;26.57;51.37
67555;HTU21D;54385;53.516;49.456;2023-07-28T02:18:11;26.62;51.28
67555;HTU21D;54385;53.516;49.456;2023-07-28T02:20:39;26.69;50.95
67555;HTU21D;54385;53.516;49.456;2023-07-28T02:23:05;26.76;50.82
67555;HTU21D;54385;53.516;49.456;2023-07-28T02:25:31;26.83;50.61
67555;HTU21D;54385;53.516;49.456;2023-07-28T02:27:58;26.91;50.38
67555;HTU21D;54385;53.516;49.456;2023-07-28T02:30:25;26.94;50.22
67555;HTU21D;54385;53.516;49.456;2023-07-28T02:32:51;26.99;50.06
67555;HTU21D;54385;53.516;49.456;2023-07-28T02:35:18;27.04;49.98
67555;HTU21D;54385;53.516;49.456;2023-07-28T02:37:44;27.09;49.89
67555;HTU21D;54385;53.516;49.456;2023-07-28T02:40:11;27.14;49.71
67555;HTU21D;54385;53.516;49.456;2023-07-28T02:42:38;27.22;49.53
67555;HTU21D;54385;53.516;49.456;2023-07-28T02:45:05;27.30;49.24
67555;HTU21D;54385;53.516;49.456;2023-07-28T02:47:32;27.38;48.97
67555;HTU21D;54385;53.516;49.456;2023-07-28T02:49:58;27.50;48.66
67555;HTU21D;54385;53.516;49.456;2023-07-28T02:52:24;27.60;48.42
67555;HTU21D;54385;53.516;49.456;2023-07-28T02:54:51;27.63;48.39
67555;HTU21D;54385;53.516;49.456;2023-07-28T02:57:18;27.69;48.21
67555;HTU21D;54385;53.516;49.456;2023-07-28T02:59:44;27.72;48.08
67555;HTU21D;54385;53.516;49.456;2023-07-28T03:02:10;27.80;47.86
67555;HTU21D;54385;53.516;49.456;2023-07-28T03:04:37;27.84;47.81
67555;HTU21D;54385;53.516;49.456;2023-07-28T03:07:03;27.90;47.82
67555;HTU21D;54385;53.516;49.456;2023-07-28T03:09:30;27.96;47.52
67555;HTU21D;54385;53.516;49.456;2023-07-28T03:11:56;28.03;47.49
67555;HTU21D;54385;53.516;49.456;2023-07-28T03:14:23;28.10;47.20
67555;HTU21D;54385;53.516;49.456;2023-07-28T03:16:49;28.28;46.41
67555;HTU21D;54385;53.516;49.456;2023-07-28T03:19:15;28.48;45.58
67555;HTU21D;54385;53.516;49.456;2023-07-28T03:21:43;28.64;45.23
67555;HTU21D;54385;53.516;49.456;2023-07-28T03:24:09;28.79;44.99
67555;HTU21D;54385;53.516;49.456;2023-07-28T03:26:36;28.91;44.63
67555;HTU21D;54385;53.516;49.456;2023-07-28T03:29:03;28.79;44.22
67555;HTU21D;54385;53.516;49.456;2023-07-28T03:31:30;28.67;43.93
67555;HTU21D;54385;53.516;49.456;2023-07-28T03:33:58;28.44;43.67
67555;HTU21D;54385;53.516;49.456;2023-07-28T03:36:27;28.17;43.96
67555;HTU21D;54385;53.516;49.456;2023-07-28T03:38:54;27.88;44.05
67555;HTU21D;54385;53.516;49.456;2023-07-28T03:41:20;27.68;44.04
67555;HTU21D;54385;53.516;49.456;2023-07-28T03:43:47;27.52;44.22
67555;HTU21D;54385;53.516;49.456;2023-07-28T03:46:13;27.36;44.16
67555;HTU21D;54385;53.516;49.456;2023-07-28T03:48:40;27.25;44.23
67555;HTU21D;54385;53.516;49.456;2023-07-28T03:51:06;27.16;44.21
67555;HTU21D;54385;53.516;49.456;2023-07-28T03:53:33;27.10;44.13
67555;HTU21D;54385;53.516;49.456;2023-07-28T03:56:02;27.06;44.42
67555;HTU21D;54385;53.516;49.456;2023-07-28T03:58:29;27.01;43.96
67555;HTU21D;54385;53.516;49.456;2023-07-28T04:00:56;26.96;43.83
67555;HTU21D;54385;53.516;49.456;2023-07-28T04:03:22;26.95;43.70
67555;HTU21D;54385;53.516;49.456;2023-07-28T04:05:49;26.90;43.74
67555;HTU21D;54385;53.516;49.456;2023-07-28T04:08:15;26.89;43.67
67555;HTU21D;54385;53.516;49.456;2023-07-28T04:10:42;26.83;43.74
67555;HTU21D;54385;53.516;49.456;2023-07-28T04:13:09;26.82;43.74
67555;HTU21D;54385;53.516;49.456;2023-07-28T04:15:35;26.75;43.84
67555;HTU21D;54385;53.516;49.456;2023-07-28T04:18:02;26.70;44.07
67555;HTU21D;54385;53.516;49.456;2023-07-28T04:20:29;26.68;44.01
67555;HTU21D;54385;53.516;49.456;2023-07-28T04:22:58;26.66;43.96
67555;HTU21D;54385;53.516;49.456;2023-07-28T04:25:25;26.63;44.38
67555;HTU21D;54385;53.516;49.456;2023-07-28T04:27:52;26.64;44.50
67555;HTU21D;54385;53.516;49.456;2023-07-28T04:30:18;26.66;44.48
67555;HTU21D;54385;53.516;49.456;2023-07-28T04:32:45;26.64;44.54
67555;HTU21D;54385;53.516;49.456;2023-07-28T04:35:12;26.56;44.77
67555;HTU21D;54385;53.516;49.456;2023-07-28T04:37:38;26.58;44.72
67555;HTU21D;54385;53.516;49.456;2023-07-28T04:40:05;26.61;45.16
67555;HTU21D;54385;53.516;49.456;2023-07-28T04:42:34;26.52;45.07
67555;HTU21D;54385;53.516;49.456;2023-07-28T04:45:00;26.46;45.32
67555;HTU21D;54385;53.516;49.456;2023-07-28T04:47:27;26.45;45.73
67555;HTU21D;54385;53.516;49.456;2023-07-28T04:49:53;26.47;45.37
67555;HTU21D;54385;53.516;49.456;2023-07-28T04:52:20;26.43;45.24
67555;HTU21D;54385;53.516;49.456;2023-07-28T04:54:47;26.45;44.88
67555;HTU21D;54385;53.516;49.456;2023-07-28T04:57:14;26.48;45.72
67555;HTU21D;54385;53.516;49.456;2023-07-28T04:59:41;26.66;44.82
67555;HTU21D;54385;53.516;49.456;2023-07-28T05:02:08;26.71;44.30
67555;HTU21D;54385;53.516;49.456;2023-07-28T05:04:34;26.70;44.31
67555;HTU21D;54385;53.516;49.456;2023-07-28T05:07:03;26.79;44.79
67555;HTU21D;54385;53.516;49.456;2023-07-28T05:09:30;26.81;44.32
67555;HTU21D;54385;53.516;49.456;2023-07-28T05:11:56;26.73;44.57
67555;HTU21D;54385;53.516;49.456;2023-07-28T05:14:23;26.70;44.96
67555;HTU21D;54385;53.516;49.456;2023-07-28T05:16:50;26.83;44.84
67555;HTU21D;54385;53.516;49.456;2023-07-28T05:19:16;26.91;44.57
67555;HTU21D;54385;53.516;49.456;2023-07-28T05:21:43;26.99;44.36
67555;HTU21D;54385;53.516;49.456;2023-07-28T05:24:10;27.05;44.36
67555;HTU21D;54385;53.516;49.456;2023-07-28T05:26:36;27.06;44.06
67555;HTU21D;54385;53.516;49.456;2023-07-28T05:29:03;27.11;43.97
67555;HTU21D;54385;53.516;49.456;2023-07-28T05:31:36;27.17;43.62
67555;HTU21D;54385;53.516;49.456;2023-07-28T05:34:04;27.10;43.60
67555;HTU21D;54385;53.516;49.456;2023-07-28T05:36:30;27.25;43.24
67555;HTU21D;54385;53.516;49.456;2023-07-28T05:38:57;27.27;42.81
67555;HTU21D;54385;53.516;49.456;2023-07-28T05:41:24;27.36;42.66
67555;HTU21D;54385;53.516;49.456;2023-07-28T05:43:50;27.25;42.32
67555;HTU21D;54385;53.516;49.456;2023-07-28T05:46:17;27.30;42.19
67555;HTU21D;54385;53.516;49.456;2023-07-28T05:48:44;27.38;42.40
67555;HTU21D;54385;53.516;49.456;2023-07-28T05:51:10;27.38;41.48
67555;HTU21D;54385;53.516;49.456;2023-07-28T05:53:37;27.15;41.86
67555;HTU21D;54385;53.516;49.456;2023-07-28T05:56:04;27.21;41.59
67555;HTU21D;54385;53.516;49.456;2023-07-28T05:58:30;27.31;41.83
67555;HTU21D;54385;53.516;49.456;2023-07-28T06:01:00;27.41;41.14
67555;HTU21D;54385;53.516;49.456;2023-07-28T06:03:26;27.40;40.68
67555;HTU21D;54385;53.516;49.456;2023-07-28T06:05:55;27.36;41.73
67555;HTU21D;54385;53.516;49.456;2023-07-28T06:08:21;27.39;40.86
67555;HTU21D;54385;53.516;49.456;2023-07-28T06:10:48;27.37;40.65
67555;HTU21D;54385;53.516;49.456;2023-07-28T06:13:14;27.29;40.43
67555;HTU21D;54385;53.516;49.456;2023-07-28T06:15:42;27.25;40.28
67555;HTU21D;54385;53.516;49.456;2023-07-28T06:18:08;27.26;39.97
67555;HTU21D;54385;53.516;49.456;2023-07-28T06:20:35;27.29;40.08
67555;HTU21D;54385;53.516;49.456;2023-07-28T06:23:01;27.27;39.97
67555;HTU21D;54385;53.516;49.456;2023-07-28T06:25:28;27.20;39.88
67555;HTU21D;54385;53.516;49.456;2023-07-28T06:27:55;27.27;40.07
67555;HTU21D;54385;53.516;49.456;2023-07-28T06:30:22;27.25;39.88
67555;HTU21D;54385;53.516;49.456;2023-07-28T06:32:48;27.23;39.60
67555;HTU21D;54385;53.516;49.456;2023-07-28T06:35:15;27.21;39.73
67555;HTU21D;54385;53.516;49.456;2023-07-28T06:37:41;27.17;39.77
67555;HTU21D;54385;53.516;49.456;2023-07-28T06:40:09;27.20;39.43
67555;HTU21D;54385;53.516;49.456;2023-07-28T06:42:36;27.17;39.31
67555;HTU21D;54385;53.516;49.456;2023-07-28T06:45:03;27.15;39.22
67555;HTU21D;54385;53.516;49.456;2023-07-28T06:47:30;27.12;39.30
67555;HTU21D;54385;53.516;49.456;2023-07-28T06:49:57;27.12;39.42
67555;HTU21D;54385;53.516;49.456;2023-07-28T06:52:23;27.12;39.23
67555;HTU21D;54385;53.516;49.456;2023-07-28T06:54:49;27.12;39.16
67555;HTU21D;54385;53.516;49.456;2023-07-28T06:57:16;27.11;39.21
67555;HTU21D;54385;53.516;49.456;2023-07-28T06:59:43;27.14;39.27
67555;HTU21D;54385;53.516;49.456;2023-07-28T07:02:09;27.19;39.58
67555;HTU21D;54385;53.516;49.456;2023-07-28T07:04:45;27.20;39.22
67555;HTU21D;54385;53.516;49.456;2023-07-28T07:07:13;27.20;39.48
67555;HTU21D;54385;53.516;49.456;2023-07-28T07:09:40;27.31;39.20
67555;HTU21D;54385;53.516;49.456;2023-07-28T07:12:10;27.35;38.78
67555;HTU21D;54385;53.516;49.456;2023-07-28T07:14:37;27.44;39.33
67555;HTU21D;54385;53.516;49.456;2023-07-28T07:17:07;27.54;39.09
67555;HTU21D;54385;53.516;49.456;2023-07-28T07:19:34;27.56;39.07
67555;HTU21D;54385;53.516;49.456;2023-07-28T07:22:03;27.60;38.72
67555;HTU21D;54385;53.516;49.456;2023-07-28T07:24:30;27.61;38.69
67555;HTU21D;54385;53.516;49.456;2023-07-28T07:26:56;27.59;38.79
67555;HTU21D;54385;53.516;49.456;2023-07-28T07:29:26;27.61;38.54
67555;HTU21D;54385;53.516;49.456;2023-07-28T07:31:53;27.64;38.79
67555;HTU21D;54385;53.516;49.456;2023-07-28T07:34:22;27.65;38.61
67555;HTU21D;54385;53.516;49.456;2023-07-28T07:36:49;27.70;38.57
67555;HTU21D;54385;53.516;49.456;2023-07-28T07:39:16;27.78;38.54
67555;HTU21D;54385;53.516;49.456;2023-07-28T07:41:42;27.86;38.49
67555;HTU21D;54385;53.516;49.456;2023-07-28T07:44:09;27.88;38.49
67555;HTU21D;54385;53.516;49.456;2023-07-28T07:46:35;27.90;38.36
67555;HTU21D;54385;53.516;49.456;2023-07-28T07:49:02;27.91;38.22
67555;HTU21D;54385;53.516;49.456;2023-07-28T07:51:34;27.95;38.17
67555;HTU21D;54385;53.516;49.456;2023-07-28T07:54:02;27.89;38.10
67555;HTU21D;54385;53.516;49.456;2023-07-28T07:56:28;28.02;38.26
67555;HTU21D;54385;53.516;49.456;2023-07-28T07:58:58;28.08;38.20
67555;HTU21D;54385;53.516;49.456;2023-07-28T08:01:24;28.11;37.99
67555;HTU21D;54385;53.516;49.456;2023-07-28T08:03:51;28.10;37.68
67555;HTU21D;54385;53.516;49.456;2023-07-28T08:06:17;28.02;38.08
67555;HTU21D;54385;53.516;49.456;2023-07-28T08:08:44;28.09;37.81
67555;HTU21D;54385;53.516;49.456;2023-07-28T08:11:11;28.06;37.72
67555;HTU21D;54385;53.516;49.456;2023-07-28T08:13:38;28.14;37.68
67555;HTU21D;54385;53.516;49.456;2023-07-28T08:16:06;28.19;37.64
67555;HTU21D;54385;53.516;49.456;2023-07-28T08:18:32;28.14;37.50
67555;HTU21D;54385;53.516;49.456;2023-07-28T08:20:59;28.11;37.56
67555;HTU21D;54385;53.516;49.456;2023-07-28T08:23:26;28.15;37.60
67555;HTU21D;54385;53.516;49.456;2023-07-28T08:25:52;28.20;37.37
67555;HTU21D;54385;53.516;49.456;2023-07-28T08:28:19;28.20;37.87
67555;HTU21D;54385;53.516;49.456;2023-07-28T08:30:55;28.20;37.32
67555;HTU21D;54385;53.516;49.456;2023-07-28T08:33:25;28.21;37.52
67555;HTU21D;54385;53.516;49.456;2023-07-28T08:35:55;28.34;37.43
67555;HTU21D;54385;53.516;49.456;2023-07-28T08:38:21;28.34;37.28
67555;HTU21D;54385;53.516;49.456;2023-07-28T08:40:48;28.56;37.86
67555;HTU21D;54385;53.516;49.456;2023-07-28T08:43:18;28.65;37.40
67555;HTU21D;54385;53.516;49.456;2023-07-28T08:45:44;28.79;37.51
67555;HTU21D;54385;53.516;49.456;2023-07-28T08:48:11;29.03;37.15
67555;HTU21D;54385;53.516;49.456;2023-07-28T08:50:37;29.27;37.22
67555;HTU21D;54385;53.516;49.456;2023-07-28T08:53:04;29.57;37.49
67555;HTU21D;54385;53.516;49.456;2023-07-28T08:55:30;29.82;37.66
67555;HTU21D;54385;53.516;49.456;2023-07-28T08:58:14;30.10;37.81
67555;HTU21D;54385;53.516;49.456;2023-07-28T09:00:40;30.32;36.95
67555;HTU21D;54385;53.516;49.456;2023-07-28T09:03:10;30.53;36.40
67555;HTU21D;54385;53.516;49.456;2023-07-28T09:05:37;30.70;36.17
67555;HTU21D;54385;53.516;49.456;2023-07-28T09:08:07;30.94;35.74
67555;HTU21D;54385;53.516;49.456;2023-07-28T09:10:44;31.07;35.24
67555;HTU21D;54385;53.516;49.456;2023-07-28T09:13:12;31.21;35.28
67555;HTU21D;54385;53.516;49.456;2023-07-28T09:15:39;31.31;35.07
67555;HTU21D;54385;53.516;49.456;2023-07-28T09:18:10;31.45;34.64
67555;HTU21D;54385;53.516;49.456;2023-07-28T09:20:38;31.56;34.66
67555;HTU21D;54385;53.516;49.456;2023-07-28T09:23:05;31.67;34.49
67555;HTU21D;54385;53.516;49.456;2023-07-28T09:25:35;31.74;34.37
67555;HTU21D;54385;53.516;49.456;2023-07-28T09:28:03;31.85;34.21
67555;HTU21D;54385;53.516;49.456;2023-07-28T09:30:50;31.98;33.58
67555;HTU21D;54385;53.516;49.456;2023-07-28T09:33:37;32.04;33.50
67555;HTU21D;54385;53.516;49.456;2023-07-28T09:36:08;32.15;33.53
67555;HTU21D;54385;53.516;49.456;2023-07-28T09:38:40;32.23;33.31
67555;HTU21D;54385;53.516;49.456;2023-07-28T09:41:08;32.32;33.39
67555;HTU21D;54385;53.516;49.456;2023-07-28T09:43:37;32.40;33.23
67555;HTU21D;54385;53.516;49.456;2023-07-28T09:46:05;32.48;33.12
67555;HTU21D;54385;53.516;49.456;2023-07-28T09:48:37;32.57;32.80
67555;HTU21D;54385;53.516;49.456;2023-07-28T09:51:08;32.66;32.55
67555;HTU21D;54385;53.516;49.456;2023-07-28T09:53:46;32.79;32.24
67555;HTU21D;54385;53.516;49.456;2023-07-28T09:56:15;32.82;32.43
67555;HTU21D;54385;53.516;49.456;2023-07-28T09:58:50;32.94;32.01
67555;HTU21D;54385;53.516;49.456;2023-07-28T10:01:18;33.01;32.28
67555;HTU21D;54385;53.516;49.456;2023-07-28T10:03:45;33.13;32.06
67555;HTU21D;54385;53.516;49.456;2023-07-28T10:06:14;33.21;31.90
67555;HTU21D;54385;53.516;49.456;2023-07-28T10:08:43;33.28;31.86
67555;HTU21D;54385;53.516;49.456;2023-07-28T10:11:12;33.43;31.49
67555;HTU21D;54385;53.516;49.456;2023-07-28T10:13:43;33.47;31.32
67555;HTU21D;54385;53.516;49.456;2023-07-28T10:16:10;33.59;31.42
67555;HTU21D;54385;53.516;49.456;2023-07-28T10:18:37;33.71;31.26
67555;HTU21D;54385;53.516;49.456;2023-07-28T10:21:09;33.80;30.79
67555;HTU21D;54385;53.516;49.456;2023-07-28T10:23:44;33.85;31.06
67555;HTU21D;54385;53.516;49.456;2023-07-28T10:26:11;33.93;30.96
67555;HTU21D;54385;53.516;49.456;2023-07-28T10:28:39;34.02;30.78
67555;HTU21D;54385;53.516;49.456;2023-07-28T10:31:10;34.10;30.63
67555;HTU21D;54385;53.516;49.456;2023-07-28T10:33:39;34.23;30.46
67555;HTU21D;54385;53.516;49.456;2023-07-28T10:36:17;34.34;29.96
67555;HTU21D;54385;53.516;49.456;2023-07-28T10:38:44;34.42;30.36
67555;HTU21D;54385;53.516;49.456;2023-07-28T10:41:16;34.57;29.74
67555;HTU21D;54385;53.516;49.456;2023-07-28T10:43:44;34.77;29.84
67555;HTU21D;54385;53.516;49.456;2023-07-28T10:46:16;35.01;29.03
67555;HTU21D;54385;53.516;49.456;2023-07-28T10:48:45;35.28;29.06
67555;HTU21D;54385;53.516;49.456;2023-07-28T10:51:19;35.44;28.91
67555;HTU21D;54385;53.516;49.456;2023-07-28T10:53:49;35.60;28.73
67555;HTU21D;54385;53.516;49.456;2023-07-28T10:56:16;36.01;28.14
67555;HTU21D;54385;53.516;49.456;2023-07-28T10:58:42;36.30;27.67
67555;HTU21D;54385;53.516;49.456;2023-07-28T11:01:10;36.72;26.99
67555;HTU21D;54385;53.516;49.456;2023-07-28T11:03:37;37.20;26.40
67555;HTU21D;54385;53.516;49.456;2023-07-28T11:06:06;37.71;25.66
67555;HTU21D;54385;53.516;49.456;2023-07-28T11:08:33;38.28;24.84
67555;HTU21D;54385;53.516;49.456;2023-07-28T11:11:03;38.99;23.72
67555;HTU21D;54385;53.516;49.456;2023-07-28T11:13:30;39.89;22.62
67555;HTU21D;54385;53.516;49.456;2023-07-28T11:15:57;40.70;21.54
67555;HTU21D;54385;53.516;49.456;2023-07-28T11:18:26;41.62;20.29
67555;HTU21D;54385;53.516;49.456;2023-07-28T11:20:52;42.31;19.57
67555;HTU21D;54385;53.516;49.456;2023-07-28T11:23:19;43.09;18.66
67555;HTU21D;54385;53.516;49.456;2023-07-28T11:25:46;43.66;18.01
67555;HTU21D;54385;53.516;49.456;2023-07-28T11:28:13;44.11;17.54
67555;HTU21D;54385;53.516;49.456;2023-07-28T11:30:41;44.52;17.06
67555;HTU21D;54385;53.516;49.456;2023-07-28T11:33:10;45.01;16.57
67555;HTU21D;54385;53.516;49.456;2023-07-28T11:35:38;45.41;16.19
67555;HTU21D;54385;53.516;49.456;2023-07-28T11:38:07;45.61;15.96
67555;HTU21D;54385;53.516;49.456;2023-07-28T11:40:35;45.92;15.74
67555;HTU21D;54385;53.516;49.456;2023-07-28T11:43:03;46.33;15.34
67555;HTU21D;54385;53.516;49.456;2023-07-28T11:45:30;46.59;15.12
67555;HTU21D;54385;53.516;49.456;2023-07-28T11:48:01;46.88;14.90
67555;HTU21D;54385;53.516;49.456;2023-07-28T11:50:40;47.11;14.13
67555;HTU21D;54385;53.516;49.456;2023-07-28T11:53:09;47.38;14.29
67555;HTU21D;54385;53.516;49.456;2023-07-28T11:55:36;47.43;14.38
67555;HTU21D;54385;53.516;49.456;2023-07-28T11:58:05;47.77;14.02
67555;HTU21D;54385;53.516;49.456;2023-07-28T12:00:37;47.95;13.85
67555;HTU21D;54385;53.516;49.456;2023-07-28T12:03:11;48.06;13.52
67555;HTU21D;54385;53.516;49.456;2023-07-28T12:08:37;48.41;13.21
67555;HTU21D;54385;53.516;49.456;2023-07-28T12:11:04;48.75;13.38
67555;HTU21D;54385;53.516;49.456;2023-07-28T12:13:31;48.90;13.25
67555;HTU21D;54385;53.516;49.456;2023-07-28T12:15:58;49.06;13.10
67555;HTU21D;54385;53.516;49.456;2023-07-28T12:18:29;49.26;12.57
67555;HTU21D;54385;53.516;49.456;2023-07-28T12:20:56;49.47;12.80
67555;HTU21D;54385;53.516;49.456;2023-07-28T12:23:24;49.76;12.56
67555;HTU21D;54385;53.516;49.456;2023-07-28T12:25:51;49.83;12.54
67555;HTU21D;54385;53.516;49.456;2023-07-28T12:28:20;49.89;12.50
67555;HTU21D;54385;53.516;49.456;2023-07-28T12:30:46;49.99;12.46
67555;HTU21D;54385;53.516;49.456;2023-07-28T12:33:15;50.05;12.41
67555;HTU21D;54385;53.516;49.456;2023-07-28T12:35:42;50.09;12.39
67555;HTU21D;54385;53.516;49.456;2023-07-28T12:38:09;50.14;12.38
67555;HTU21D;54385;53.516;49.456;2023-07-28T12:40:35;50.15;12.42
67555;HTU21D;54385;53.516;49.456;2023-07-28T12:43:04;50.22;12.32
67555;HTU21D;54385;53.516;49.456;2023-07-28T12:45:31;50.27;12.35
67555;HTU21D;54385;53.516;49.456;2023-07-28T12:47:58;50.30;12.34
67555;HTU21D;54385;53.516;49.456;2023-07-28T12:50:25;50.38;12.28
67555;HTU21D;54385;53.516;49.456;2023-07-28T12:52:52;50.49;12.22
67555;HTU21D;54385;53.516;49.456;2023-07-28T12:55:19;50.57;12.19
67555;HTU21D;54385;53.516;49.456;2023-07-28T12:57:46;50.60;12.15
67555;HTU21D;54385;53.516;49.456;2023-07-28T13:00:15;50.89;11.96
67555;HTU21D;54385;53.516;49.456;2023-07-28T13:02:43;50.94;11.91
67555;HTU21D;54385;53.516;49.456;2023-07-28T13:05:11;50.94;11.94
67555;HTU21D;54385;53.516;49.456;2023-07-28T13:07:38;50.93;12.00
67555;HTU21D;54385;53.516;49.456;2023-07-28T13:10:07;50.50;12.27
67555;HTU21D;54385;53.516;49.456;2023-07-28T13:12:36;49.62;13.16
67555;HTU21D;54385;53.516;49.456;2023-07-28T13:15:04;48.88;13.81
67555;HTU21D;54385;53.516;49.456;2023-07-28T13:17:31;48.59;14.12
67555;HTU21D;54385;53.516;49.456;2023-07-28T13:19:58;48.85;13.91
67555;HTU21D;54385;53.516;49.456;2023-07-28T13:22:24;48.51;14.27
67555;HTU21D;54385;53.516;49.456;2023-07-28T13:24:53;48.67;14.15
67555;HTU21D;54385;53.516;49.456;2023-07-28T13:27:20;48.72;14.14
67555;HTU21D;54385;53.516;49.456;2023-07-28T13:29:47;48.82;14.05
67555;HTU21D;54385;53.516;49.456;2023-07-28T13:32:18;48.83;13.90
67555;HTU21D;54385;53.516;49.456;2023-07-28T13:34:48;48.37;14.48
67555;HTU21D;54385;53.516;49.456;2023-07-28T13:37:15;47.96;14.91
67555;HTU21D;54385;53.516;49.456;2023-07-28T13:39:42;47.60;15.30
67555;HTU21D;54385;53.516;49.456;2023-07-28T13:42:09;47.93;15.00
67555;HTU21D;54385;53.516;49.456;2023-07-28T13:44:38;48.02;14.89
67555;HTU21D;54385;53.516;49.456;2023-07-28T13:47:08;47.43;15.47
67555;HTU21D;54385;53.516;49.456;2023-07-28T13:49:35;46.88;16.03
67555;HTU21D;54385;53.516;49.456;2023-07-28T13:52:03;46.32;16.61
67555;HTU21D;54385;53.516;49.456;2023-07-28T13:54:30;45.92;17.02
67555;HTU21D;54385;53.516;49.456;2023-07-28T13:56:57;45.90;17.06
67555;HTU21D;54385;53.516;49.456;2023-07-28T13:59:24;45.99;17.01
67555;HTU21D;54385;53.516;49.456;2023-07-28T14:01:51;45.89;17.11
67555;HTU21D;54385;53.516;49.456;2023-07-28T14:04:17;45.71;17.33
67555;HTU21D;54385;53.516;49.456;2023-07-28T14:06:44;45.25;17.80
67555;HTU21D;54385;53.516;49.456;2023-07-28T14:09:11;44.51;18.60
67555;HTU21D;54385;53.516;49.456;2023-07-28T14:11:39;43.52;19.72
67555;HTU21D;54385;53.516;49.456;2023-07-28T14:14:06;42.55;20.86
67555;HTU21D;54385;53.516;49.456;2023-07-28T14:16:33;41.73;21.88
67555;HTU21D;54385;53.516;49.456;2023-07-28T14:18:59;41.09;22.73
67555;HTU21D;54385;53.516;49.456;2023-07-28T14:21:26;40.57;23.40
67555;HTU21D;54385;53.516;49.456;2023-07-28T14:23:53;40.13;24.01
67555;HTU21D;54385;53.516;49.456;2023-07-28T14:26:19;39.80;24.51
67555;HTU21D;54385;53.516;49.456;2023-07-28T14:28:46;39.44;25.00
67555;HTU21D;54385;53.516;49.456;2023-07-28T14:31:13;39.13;25.46
67555;HTU21D;54385;53.516;49.456;2023-07-28T14:33:40;38.86;25.88
67555;HTU21D;54385;53.516;49.456;2023-07-28T14:36:06;38.67;26.18
67555;HTU21D;54385;53.516;49.456;2023-07-28T14:38:33;38.52;26.44
67555;HTU21D;54385;53.516;49.456;2023-07-28T14:41:00;38.36;26.68
67555;HTU21D;54385;53.516;49.456;2023-07-28T14:43:26;38.16;27.03
67555;HTU21D;54385;53.516;49.456;2023-07-28T14:45:54;38.05;27.30
67555;HTU21D;54385;53.516;49.456;2023-07-28T14:48:21;38.16;27.05
67555;HTU21D;54385;53.516;49.456;2023-07-28T14:50:48;38.16;27.08
67555;HTU21D;54385;53.516;49.456;2023-07-28T14:53:28;37.95;27.78
67555;HTU21D;54385;53.516;49.456;2023-07-28T14:55:55;37.81;27.62
67555;HTU21D;54385;53.516;49.456;2023-07-28T14:58:22;37.70;27.87
67555;HTU21D;54385;53.516;49.456;2023-07-28T15:00:49;37.61;28.02
67555;HTU21D;54385;53.516;49.456;2023-07-28T15:03:16;37.55;28.10
67555;HTU21D;54385;53.516;49.456;2023-07-28T15:05:43;37.46;28.29
67555;HTU21D;54385;53.516;49.456;2023-07-28T15:08:09;37.38;28.39
67555;HTU21D;54385;53.516;49.456;2023-07-28T15:10:36;37.25;28.61